createdAt,value
2019-02-05T00:02:09.571Z,1.40
2019-02-05T00:04:36.516Z,1.20
2019-02-05T00:07:03.460Z,1.70
2019-02-05T00:09:30.301Z,1.57
2019-02-05T00:11:57.556Z,1.23
2019-02-05T00:14:24.708Z,1.37
2019-02-05T00:16:51.651Z,1.17
2019-02-05T00:19:18.701Z,1.40
2019-02-05T00:21:46.159Z,1.27
2019-02-05T00:24:13.103Z,0.80
2019-02-05T00:26:39.949Z,1.10
2019-02-05T00:29:06.992Z,1.10
2019-02-05T00:31:34.040Z,1.37
2019-02-05T00:34:00.784Z,1.47
2019-02-05T00:36:28.557Z,1.10
2019-02-05T00:38:55.324Z,1.20
2019-02-05T00:41:22.229Z,1.40
2019-02-05T00:43:49.474Z,1.47
2019-02-05T00:46:16.213Z,1.67
2019-02-05T00:48:42.961Z,1.83
2019-02-05T00:51:10.419Z,1.80
2019-02-05T00:53:37.368Z,1.70
2019-02-05T00:56:04.675Z,1.90
2019-02-05T00:58:31.654Z,2.00
2019-02-05T01:00:58.388Z,2.50
2019-02-05T01:03:25.256Z,2.40
2019-02-05T01:05:52.034Z,2.63
2019-02-05T01:08:18.875Z,2.57
2019-02-05T01:10:46.365Z,2.47
2019-02-05T01:13:13.151Z,2.40
2019-02-05T01:15:39.881Z,2.60
2019-02-05T01:18:06.820Z,3.07
2019-02-05T01:20:33.764Z,3.07
2019-02-05T01:23:00.499Z,3.10
2019-02-05T01:25:27.316Z,3.73
2019-02-05T01:27:54.121Z,4.00
2019-02-05T01:30:20.927Z,4.27
2019-02-05T01:32:47.748Z,4.03
2019-02-05T01:35:14.614Z,4.23
2019-02-05T01:37:41.419Z,4.13
2019-02-05T01:40:09.843Z,4.07
2019-02-05T01:42:36.685Z,4.40
2019-02-05T01:45:03.523Z,4.70
2019-02-05T01:47:30.472Z,4.30
2019-02-05T01:49:57.313Z,4.80
2019-02-05T01:52:24.044Z,4.97
2019-02-05T01:54:51.000Z,4.20
2019-02-05T01:57:17.752Z,4.47
2019-02-05T01:59:44.693Z,4.87
2019-02-05T02:02:11.594Z,5.23
2019-02-05T02:04:38.474Z,5.17
2019-02-05T02:07:05.280Z,4.93
2019-02-05T02:09:32.359Z,5.30
2019-02-05T02:11:59.101Z,4.60
2019-02-05T02:14:26.051Z,5.10
2019-02-05T02:16:52.888Z,5.17
2019-02-05T02:19:19.729Z,5.70
2019-02-05T02:21:46.513Z,6.10
2019-02-05T02:24:14.135Z,6.13
2019-02-05T02:26:51.599Z,6.43
2019-02-05T02:29:07.818Z,6.10
2019-02-05T02:31:35.382Z,6.40
2019-02-05T02:34:02.334Z,6.83
2019-02-05T02:36:29.093Z,7.00
2019-02-05T02:38:55.869Z,6.70
2019-02-05T02:41:23.314Z,6.97
2019-02-05T02:43:50.137Z,7.07
2019-02-05T02:46:17.709Z,7.80
2019-02-05T02:48:44.507Z,9.17
2019-02-05T02:51:11.456Z,9.00
2019-02-05T02:53:38.411Z,8.70
2019-02-05T02:56:05.209Z,8.90
2019-02-05T02:58:32.189Z,9.20
2019-02-05T03:00:59.136Z,9.57
2019-02-05T03:03:25.971Z,10.40
2019-02-05T03:05:52.919Z,10.27
2019-02-05T03:08:19.657Z,9.93
2019-02-05T03:10:46.437Z,10.57
2019-02-05T03:13:14.008Z,10.90
2019-02-05T03:15:41.485Z,11.00
2019-02-05T03:18:09.002Z,11.10
2019-02-05T03:20:35.787Z,12.13
2019-02-05T03:23:03.275Z,12.47
2019-02-05T03:25:30.780Z,12.53
2019-02-05T03:27:57.603Z,14.43
2019-02-05T03:30:24.618Z,13.43
2019-02-05T03:32:51.309Z,12.60
2019-02-05T03:35:18.311Z,12.77
2019-02-05T03:37:46.689Z,12.53
2019-02-05T03:43:04.753Z,17.12
2019-02-05T03:45:31.902Z,13.57
2019-02-05T03:47:58.946Z,12.37
2019-02-05T03:50:25.793Z,13.10
2019-02-05T03:53:08.760Z,12.90
2019-02-05T03:55:49.474Z,12.57
2019-02-05T03:58:17.435Z,13.67
2019-02-05T04:00:59.036Z,12.73
2019-02-05T04:03:27.544Z,12.53
2019-02-05T04:06:01.529Z,12.73
2019-02-05T04:08:41.949Z,12.50
2019-02-05T04:11:15.485Z,13.63
2019-02-05T04:13:59.232Z,13.30
2019-02-05T04:19:34.998Z,15.75
2019-02-05T04:25:10.877Z,17.83
2019-02-05T04:27:55.373Z,13.33
2019-02-05T04:30:34.741Z,12.67
2019-02-05T04:33:13.361Z,12.53
2019-02-05T04:35:44.020Z,12.80
2019-02-05T04:38:27.814Z,13.70
2019-02-05T04:41:03.631Z,11.67
2019-02-05T04:47:01.611Z,17.05
2019-02-05T04:49:47.288Z,13.17
2019-02-05T04:52:18.539Z,13.43
2019-02-05T04:58:14.393Z,18.67
2019-02-05T05:03:48.335Z,16.37
2019-02-05T05:06:35.127Z,14.70
2019-02-05T05:12:00.165Z,15.73
2019-02-05T05:14:27.900Z,12.63
2019-02-05T05:16:55.973Z,14.97
2019-02-05T05:19:23.644Z,12.37
2019-02-05T05:21:50.461Z,15.10
2019-02-05T05:24:17.282Z,12.80
2019-02-05T05:26:44.165Z,13.83
2019-02-05T05:29:10.905Z,14.60
2019-02-05T05:31:37.748Z,12.63
2019-02-05T05:34:04.522Z,13.10
2019-02-05T05:36:32.154Z,15.40
2019-02-05T05:38:59.001Z,12.30
2019-02-05T05:41:25.946Z,14.83
2019-02-05T05:43:52.781Z,12.70
2019-02-05T05:46:19.732Z,14.30
2019-02-05T05:48:46.469Z,12.70
2019-02-05T05:51:13.309Z,12.17
2019-02-05T05:53:40.049Z,12.87
2019-02-05T05:56:06.878Z,10.77
2019-02-05T05:58:33.941Z,11.57
2019-02-05T06:01:00.681Z,11.20
2019-02-05T06:03:27.526Z,12.33
2019-02-05T06:05:54.470Z,11.90
2019-02-05T06:08:21.825Z,11.77
2019-02-05T06:10:48.568Z,15.43
2019-02-05T06:13:15.407Z,11.93
2019-02-05T06:15:42.252Z,11.67
2019-02-05T06:18:09.401Z,12.90
2019-02-05T06:20:37.063Z,12.20
2019-02-05T06:23:03.911Z,11.73
2019-02-05T06:25:31.569Z,12.47
2019-02-05T06:27:58.409Z,10.67
2019-02-05T06:30:25.211Z,15.23
2019-02-05T06:32:51.957Z,11.90
2019-02-05T06:35:18.734Z,13.23
2019-02-05T06:37:45.474Z,13.43
2019-02-05T06:40:12.420Z,12.10
2019-02-05T06:42:39.263Z,14.40
2019-02-05T06:45:06.106Z,11.03
2019-02-05T06:47:35.208Z,11.93
2019-02-05T06:50:03.291Z,11.97
2019-02-05T06:52:30.114Z,11.87
2019-02-05T06:54:57.712Z,10.53
2019-02-05T06:57:24.623Z,12.07
2019-02-05T06:59:51.355Z,15.43
2019-02-05T07:02:18.202Z,13.27
2019-02-05T07:04:45.048Z,11.13
2019-02-05T07:07:11.887Z,12.10
2019-02-05T07:09:39.390Z,12.67
2019-02-05T07:12:07.008Z,9.73
2019-02-05T07:14:33.857Z,11.67
2019-02-05T07:17:00.616Z,10.33
2019-02-05T07:19:27.535Z,10.90
2019-02-05T07:21:54.381Z,11.73
2019-02-05T07:24:21.292Z,10.87
2019-02-05T07:26:48.079Z,12.20
2019-02-05T07:29:14.803Z,10.13
2019-02-05T07:31:41.528Z,10.87
2019-02-05T07:34:08.497Z,10.33
2019-02-05T07:36:36.158Z,10.73
2019-02-05T07:39:03.103Z,12.20
2019-02-05T07:41:30.045Z,10.27
2019-02-05T07:43:57.708Z,9.93
2019-02-05T07:46:24.448Z,10.83
2019-02-05T07:48:51.250Z,10.97
2019-02-05T07:51:17.991Z,11.60
2019-02-05T07:53:44.719Z,11.20
2019-02-05T07:58:53.103Z,11.20
2019-02-05T08:01:20.049Z,12.00
2019-02-05T08:03:46.894Z,10.77
2019-02-05T08:06:13.627Z,10.27
2019-02-05T08:08:40.431Z,12.03
2019-02-05T08:11:07.982Z,10.40
2019-02-05T08:13:35.434Z,11.03
2019-02-05T08:16:03.032Z,10.47
2019-02-05T08:18:29.763Z,11.07
2019-02-05T08:20:56.644Z,10.37
2019-02-05T08:23:23.410Z,10.50
2019-02-05T08:25:50.214Z,10.37
2019-02-05T08:28:17.161Z,10.47
2019-02-05T08:30:43.978Z,9.60
2019-02-05T08:33:10.748Z,9.87
2019-02-05T08:35:37.686Z,9.70
2019-02-05T08:38:04.544Z,9.53
2019-02-05T08:40:31.266Z,9.77
2019-02-05T08:42:58.064Z,9.73
2019-02-05T08:45:26.698Z,9.50
2019-02-05T08:47:53.748Z,10.30
2019-02-05T08:50:20.569Z,9.23
2019-02-05T08:52:47.329Z,9.93
2019-02-05T08:55:14.265Z,9.30
2019-02-05T08:57:41.118Z,9.67
2019-02-05T09:00:11.544Z,8.77
2019-02-05T09:02:38.491Z,8.93
2019-02-05T09:05:05.276Z,8.30
2019-02-05T09:07:32.995Z,9.30
2019-02-05T09:09:59.733Z,8.33
2019-02-05T09:12:26.578Z,8.93
2019-02-05T09:14:53.420Z,8.93
2019-02-05T09:17:20.265Z,8.63
2019-02-05T09:19:47.207Z,7.60
2019-02-05T09:22:14.154Z,7.53
2019-02-05T09:24:41.103Z,8.37
2019-02-05T09:27:07.939Z,7.90
2019-02-05T09:29:35.707Z,8.23
2019-02-05T09:32:02.476Z,7.70
2019-02-05T09:34:30.007Z,7.90
2019-02-05T09:36:57.670Z,8.43
2019-02-05T09:39:24.616Z,7.93
2019-02-05T09:41:51.370Z,8.40
2019-02-05T09:44:18.160Z,8.43
2019-02-05T09:46:45.755Z,7.30
2019-02-05T09:49:12.704Z,7.27
2019-02-05T09:51:40.367Z,6.87
2019-02-05T09:54:07.883Z,6.97
2019-02-05T09:56:34.588Z,7.07
2019-02-05T09:59:01.433Z,6.80
2019-02-05T10:01:28.204Z,6.20
2019-02-05T10:03:54.925Z,6.83
2019-02-05T10:06:21.768Z,6.87
2019-02-05T10:08:48.475Z,7.50
2019-02-05T10:11:15.233Z,6.17
2019-02-05T10:13:42.764Z,6.23
2019-02-05T10:16:09.559Z,6.93
2019-02-05T10:18:36.282Z,6.87
2019-02-05T10:21:03.911Z,6.67
2019-02-05T10:23:30.859Z,6.20
2019-02-05T10:25:57.593Z,6.40
2019-02-05T10:28:24.543Z,6.30
2019-02-05T10:30:52.102Z,6.33
2019-02-05T10:33:18.850Z,6.53
2019-02-05T10:35:45.698Z,6.77
2019-02-05T10:38:13.245Z,6.93
2019-02-05T10:40:40.036Z,6.70
2019-02-05T10:43:06.893Z,7.40
2019-02-05T10:45:33.703Z,7.20
2019-02-05T10:48:01.276Z,6.53
2019-02-05T10:50:28.176Z,7.33
2019-02-05T10:52:54.926Z,6.83
2019-02-05T10:55:21.684Z,7.27
2019-02-05T10:57:49.485Z,8.47
2019-02-05T11:00:27.181Z,6.83
2019-02-05T11:02:54.062Z,6.77
2019-02-05T11:05:21.010Z,6.50
2019-02-05T11:07:47.852Z,6.93
2019-02-05T11:10:14.802Z,7.00
2019-02-05T11:12:41.540Z,6.30
2019-02-05T11:15:09.267Z,6.10
2019-02-05T11:17:36.035Z,7.13
2019-02-05T11:20:02.869Z,6.43
2019-02-05T11:22:29.606Z,6.57
2019-02-05T11:24:56.457Z,6.07
2019-02-05T11:27:23.281Z,6.27
2019-02-05T11:29:50.004Z,6.77
2019-02-05T11:32:16.813Z,6.57
2019-02-05T11:34:43.522Z,6.73
2019-02-05T11:37:10.286Z,6.50
2019-02-05T11:39:37.937Z,6.60
2019-02-05T11:42:04.785Z,6.60
2019-02-05T11:44:32.284Z,7.30
2019-02-05T11:46:59.074Z,6.80
2019-02-05T11:49:25.909Z,6.90
2019-02-05T11:51:52.760Z,6.43
2019-02-05T11:54:19.549Z,7.33
2019-02-05T11:56:46.301Z,7.07
2019-02-05T11:59:13.019Z,6.53
2019-02-05T12:01:39.849Z,6.80
2019-02-05T12:04:07.332Z,7.13
2019-02-05T12:06:34.782Z,5.80
2019-02-05T12:09:01.687Z,6.93
2019-02-05T12:11:28.411Z,6.67
2019-02-05T12:13:55.168Z,6.60
2019-02-05T12:16:21.942Z,6.63
2019-02-05T12:18:49.375Z,6.50
2019-02-05T12:21:16.116Z,6.63
2019-02-05T12:23:42.951Z,6.17
2019-02-05T12:26:10.459Z,6.27
2019-02-05T12:28:37.194Z,6.10
2019-02-05T12:31:04.760Z,6.83
2019-02-05T12:33:32.203Z,6.30
2019-02-05T12:35:58.957Z,6.10
2019-02-05T12:38:25.780Z,6.37
2019-02-05T12:40:53.298Z,5.30
2019-02-05T12:43:20.057Z,5.03
2019-02-05T12:45:47.093Z,5.03
2019-02-05T12:48:13.843Z,5.30
2019-02-05T12:50:40.710Z,5.00
2019-02-05T12:53:07.622Z,5.00
2019-02-05T12:55:34.382Z,4.63
2019-02-05T12:58:01.880Z,4.73
2019-02-05T13:00:55.961Z,4.40
2019-02-05T13:03:11.391Z,4.80
2019-02-05T13:05:38.169Z,4.90
2019-02-05T13:08:05.757Z,4.80
2019-02-05T13:10:34.160Z,4.73
2019-02-05T13:13:00.944Z,4.60
2019-02-05T13:15:27.762Z,4.27
2019-02-05T13:17:54.517Z,5.63
2019-02-05T13:20:22.855Z,5.20
2019-02-05T13:22:49.652Z,4.70
2019-02-05T13:25:17.424Z,4.87
2019-02-05T13:27:44.251Z,5.20
2019-02-05T13:30:14.997Z,5.10
2019-02-05T13:32:41.747Z,4.33
2019-02-05T13:35:09.232Z,4.27
2019-02-05T13:37:35.955Z,4.70
2019-02-05T13:40:02.766Z,4.63
2019-02-05T13:42:30.216Z,5.13
2019-02-05T13:44:56.968Z,4.60
2019-02-05T13:47:24.789Z,4.73
2019-02-05T13:49:51.184Z,5.23
2019-02-05T13:52:17.988Z,5.37
2019-02-05T13:54:46.048Z,6.30
2019-02-05T13:57:15.920Z,7.03
2019-02-05T13:59:42.656Z,6.57
2019-02-05T14:02:09.964Z,7.57
2019-02-05T14:04:36.815Z,7.97
2019-02-05T14:07:04.479Z,6.50
2019-02-05T14:09:31.475Z,6.07
2019-02-05T14:12:01.318Z,7.27
2019-02-05T14:14:28.095Z,7.50
2019-02-05T14:16:55.001Z,6.43
2019-02-05T14:19:22.108Z,6.63
2019-02-05T14:21:48.828Z,7.50
2019-02-05T14:24:15.859Z,6.90
2019-02-05T14:26:43.405Z,7.20
2019-02-05T14:29:11.270Z,7.13
2019-02-05T14:31:39.017Z,6.83
2019-02-05T14:34:07.189Z,7.23
2019-02-05T14:36:35.564Z,7.40
2019-02-05T14:39:02.681Z,8.40
2019-02-05T14:41:30.715Z,8.30
2019-02-05T14:43:58.322Z,8.07
2019-02-05T14:46:26.383Z,8.00
2019-02-05T14:48:53.614Z,7.50
2019-02-05T14:51:21.217Z,8.30
2019-02-05T14:53:48.024Z,8.93
2019-02-05T14:56:15.559Z,7.80
2019-02-05T14:58:43.079Z,8.13
2019-02-05T15:01:09.864Z,6.43
2019-02-05T15:03:36.716Z,7.10
2019-02-05T15:06:03.666Z,6.77
2019-02-05T15:08:30.401Z,7.20
2019-02-05T15:10:57.959Z,7.40
2019-02-05T15:13:25.526Z,6.83
2019-02-05T15:15:53.242Z,6.73
2019-02-05T15:18:20.079Z,5.93
2019-02-05T15:20:49.059Z,5.97
2019-02-05T15:23:16.069Z,5.80
2019-02-05T15:28:21.801Z,4.80
2019-02-05T15:30:49.440Z,4.30
2019-02-05T15:33:23.060Z,4.17
2019-02-05T15:35:59.778Z,4.30
2019-02-05T15:38:26.998Z,4.07
2019-02-05T15:40:53.866Z,4.17
2019-02-05T15:43:21.405Z,3.97
2019-02-05T15:45:48.154Z,3.70
2019-02-05T15:48:15.798Z,3.57
2019-02-05T15:50:42.579Z,3.40
2019-02-05T15:53:10.074Z,3.60
2019-02-05T15:55:37.002Z,3.60
2019-02-05T15:58:03.986Z,2.87
2019-02-05T16:00:31.207Z,2.93
2019-02-05T16:02:58.085Z,2.80
2019-02-05T16:05:25.046Z,3.00
2019-02-05T16:07:51.869Z,2.23
2019-02-05T16:10:20.433Z,2.50
2019-02-05T16:12:47.223Z,2.70
2019-02-05T16:15:14.236Z,2.07
2019-02-05T16:17:41.690Z,1.90
2019-02-05T16:20:09.430Z,1.93
2019-02-05T16:22:38.026Z,2.03
2019-02-05T16:25:06.805Z,2.13
2019-02-05T16:27:33.637Z,2.20
2019-02-05T16:30:00.787Z,2.20
2019-02-05T16:32:28.577Z,2.00
2019-02-05T16:34:55.503Z,1.90
2019-02-05T16:37:22.409Z,1.40
2019-02-05T16:39:50.091Z,2.00
2019-02-05T16:42:17.546Z,2.00
2019-02-05T16:44:45.104Z,1.73
2019-02-05T16:47:12.561Z,1.90
2019-02-05T16:49:39.377Z,1.70
2019-02-05T16:52:06.326Z,2.00
2019-02-05T16:54:33.042Z,1.97
2019-02-05T16:56:59.902Z,1.87
2019-02-05T16:59:26.793Z,2.37
2019-02-05T17:01:53.871Z,2.37
2019-02-05T17:04:20.585Z,2.20
2019-02-05T17:06:47.971Z,2.60
2019-02-05T17:09:14.934Z,2.60
2019-02-05T17:11:41.647Z,2.90
2019-02-05T17:14:08.439Z,3.17
2019-02-05T17:16:35.911Z,3.07
2019-02-05T17:19:04.714Z,3.30
2019-02-05T17:21:33.771Z,3.33
2019-02-05T17:24:05.808Z,3.17
2019-02-05T17:26:33.189Z,2.47
2019-02-05T17:29:00.093Z,3.07
2019-02-05T17:31:29.934Z,2.57
2019-02-05T17:33:57.182Z,2.80
2019-02-05T17:36:23.953Z,2.57
2019-02-05T17:38:51.737Z,2.20
2019-02-05T17:41:18.662Z,2.60
2019-02-05T17:43:45.531Z,2.50
2019-02-05T17:46:12.352Z,2.97
2019-02-05T17:48:40.947Z,2.60
2019-02-05T17:51:07.764Z,2.70
2019-02-05T17:53:41.662Z,3.00
2019-02-05T17:56:16.351Z,2.37
2019-02-05T17:58:43.627Z,2.00
2019-02-05T18:01:10.791Z,2.30
2019-02-05T18:03:37.668Z,2.40
2019-02-05T18:06:04.591Z,1.90
2019-02-05T18:08:33.077Z,2.20
2019-02-05T18:11:02.348Z,2.20
2019-02-05T18:13:32.067Z,2.17
2019-02-05T18:15:59.207Z,2.07
2019-02-05T18:18:26.029Z,2.37
2019-02-05T18:20:52.932Z,1.80
2019-02-05T18:23:20.365Z,2.17
2019-02-05T18:25:47.849Z,2.03
2019-02-05T18:28:15.733Z,1.93
2019-02-05T18:30:42.500Z,1.90
2019-02-05T18:33:09.515Z,2.13
2019-02-05T18:35:36.347Z,1.80
2019-02-05T18:38:03.561Z,1.93
2019-02-05T18:40:31.226Z,2.37
2019-02-05T18:42:58.196Z,2.57
2019-02-05T18:45:25.026Z,2.10
2019-02-05T18:47:52.060Z,1.97
2019-02-05T18:50:22.618Z,1.73
2019-02-05T18:52:50.687Z,1.93
2019-02-05T18:55:17.539Z,2.17
2019-02-05T18:57:44.496Z,1.70
2019-02-05T19:00:13.393Z,1.33
2019-02-05T19:02:41.000Z,1.87
2019-02-05T19:05:07.858Z,1.83
2019-02-05T19:07:34.747Z,1.80
2019-02-05T19:10:01.753Z,1.70
2019-02-05T19:12:28.531Z,2.03
2019-02-05T19:14:55.298Z,2.50
2019-02-05T19:17:22.153Z,2.10
2019-02-05T19:19:49.032Z,1.93
2019-02-05T19:22:16.528Z,1.87
2019-02-05T19:24:43.747Z,2.20
2019-02-05T19:27:11.168Z,2.37
2019-02-05T19:29:38.541Z,1.93
2019-02-05T19:32:05.434Z,2.40
2019-02-05T19:34:32.348Z,1.97
2019-02-05T19:36:59.382Z,2.20
2019-02-05T19:39:26.345Z,2.30
2019-02-05T19:41:53.207Z,1.90
2019-02-05T19:44:20.287Z,2.60
2019-02-05T19:46:54.333Z,2.17
2019-02-05T19:51:48.456Z,2.17
2019-02-05T19:54:15.526Z,1.80
2019-02-05T19:56:42.599Z,2.27
2019-02-05T19:59:09.497Z,1.87
2019-02-05T20:01:40.632Z,2.27
2019-02-05T20:04:07.593Z,2.17
2019-02-05T20:06:35.413Z,2.30
2019-02-05T20:09:03.126Z,2.00
2019-02-05T20:11:30.242Z,2.37
2019-02-05T20:14:08.109Z,2.33
2019-02-05T20:16:35.141Z,1.80
2019-02-05T20:19:01.854Z,2.13
2019-02-05T20:21:31.866Z,2.50
2019-02-05T20:23:55.943Z,2.00
2019-02-05T20:26:30.310Z,2.10
2019-02-05T20:29:00.172Z,1.60
2019-02-05T20:31:27.662Z,2.17
2019-02-05T20:33:55.109Z,2.33
2019-02-05T20:36:21.991Z,2.20
2019-02-05T20:38:49.884Z,2.30
2019-02-05T20:41:23.859Z,3.30
2019-02-05T20:43:52.695Z,2.57
2019-02-05T20:46:19.529Z,2.17
2019-02-05T20:48:46.555Z,2.30
2019-02-05T20:51:13.755Z,2.67
2019-02-05T20:53:42.291Z,2.00
2019-02-05T20:56:10.149Z,2.50
2019-02-05T20:58:37.290Z,2.50
2019-02-05T21:01:04.519Z,3.40
2019-02-05T21:03:31.581Z,2.97
2019-02-05T21:06:01.790Z,2.60
2019-02-05T21:08:28.532Z,3.93
2019-02-05T21:10:55.549Z,3.20
2019-02-05T21:13:23.221Z,3.23
2019-02-05T21:15:50.267Z,3.13
2019-02-05T21:18:17.618Z,3.30
2019-02-05T21:20:44.158Z,3.63
2019-02-05T21:23:11.524Z,3.70
2019-02-05T21:25:38.998Z,3.20
2019-02-05T21:28:06.589Z,3.73
2019-02-05T21:30:33.924Z,4.17
2019-02-05T21:33:00.814Z,3.33
2019-02-05T21:35:28.601Z,3.50
2019-02-05T21:37:55.482Z,4.33
2019-02-05T21:40:23.016Z,3.27
2019-02-05T21:42:50.446Z,3.33
2019-02-05T21:45:17.529Z,3.10
2019-02-05T21:47:44.383Z,3.43
2019-02-05T21:50:14.723Z,3.07
2019-02-05T21:52:43.745Z,5.03
2019-02-05T21:55:11.480Z,3.93
2019-02-05T21:57:38.877Z,3.47
2019-02-05T22:00:13.573Z,3.03
2019-02-05T22:02:41.162Z,3.53
2019-02-05T22:05:09.155Z,3.50
2019-02-05T22:07:38.427Z,3.37
2019-02-05T22:10:05.267Z,3.47
2019-02-05T22:12:32.270Z,3.63
2019-02-05T22:14:59.232Z,3.73
2019-02-05T22:17:26.775Z,2.93
2019-02-05T22:19:55.745Z,3.53
2019-02-05T22:22:23.117Z,3.07
2019-02-05T22:24:49.942Z,3.43
2019-02-05T22:27:17.593Z,3.40
2019-02-05T22:29:48.886Z,3.40
2019-02-05T22:32:16.383Z,3.07
2019-02-05T22:34:44.734Z,2.90
2019-02-05T22:37:12.443Z,3.40
2019-02-05T22:39:40.081Z,3.63
2019-02-05T22:42:06.814Z,3.13
2019-02-05T22:44:34.339Z,3.23
2019-02-05T22:47:01.208Z,3.03
2019-02-05T22:49:28.667Z,3.33
2019-02-05T22:51:58.362Z,3.03
2019-02-05T22:54:25.668Z,3.33
2019-02-05T22:56:52.831Z,3.20
2019-02-05T22:59:19.695Z,3.47
2019-02-05T23:01:46.551Z,3.33
2019-02-05T23:04:19.587Z,3.20
2019-02-05T23:06:47.361Z,2.87
2019-02-05T23:09:31.262Z,3.63
2019-02-05T23:12:05.215Z,3.60
2019-02-05T23:14:33.775Z,4.03
2019-02-05T23:17:00.798Z,3.00
2019-02-05T23:19:28.544Z,3.27
2019-02-05T23:21:55.658Z,3.70
2019-02-05T23:24:22.580Z,3.23
2019-02-05T23:26:50.476Z,2.77
2019-02-05T23:29:17.321Z,3.27
2019-02-05T23:31:44.278Z,2.93
2019-02-05T23:34:12.812Z,3.30
2019-02-05T23:36:40.623Z,2.60
2019-02-05T23:39:07.659Z,2.90
2019-02-05T23:41:34.486Z,3.00
2019-02-05T23:44:01.523Z,3.10
2019-02-05T23:46:31.913Z,2.73
2019-02-05T23:48:58.980Z,2.73
2019-02-05T23:51:26.225Z,3.13
2019-02-05T23:53:53.050Z,2.83
2019-02-05T23:56:25.939Z,3.20
2019-02-05T23:58:47.810Z,2.63
